createdAt,value
2018-11-22T00:02:05.988Z,26.82
2018-11-22T00:04:33.663Z,25.92
2018-11-22T00:07:01.942Z,25.75
2018-11-22T00:09:30.494Z,25.77
2018-11-22T00:11:58.098Z,26.07
2018-11-22T00:14:25.709Z,25.65
2018-11-22T00:16:53.747Z,28.02
2018-11-22T00:19:21.984Z,26.20
2018-11-22T00:21:53.188Z,28.15
2018-11-22T00:24:20.887Z,27.27
2018-11-22T00:26:48.473Z,25.15
2018-11-22T00:29:16.320Z,25.80
2018-11-22T00:31:43.831Z,26.07
2018-11-22T00:34:11.521Z,26.95
2018-11-22T00:36:40.898Z,25.95
2018-11-22T00:39:10.745Z,24.43
2018-11-22T00:41:43.841Z,26.50
2018-11-22T00:44:11.926Z,26.00
2018-11-22T00:46:39.579Z,26.10
2018-11-22T00:49:07.230Z,25.45
2018-11-22T00:51:34.857Z,26.80
2018-11-22T00:54:05.171Z,28.17
2018-11-22T00:56:32.793Z,25.65
2018-11-22T00:59:00.436Z,25.68
2018-11-22T01:01:28.141Z,26.30
2018-11-22T01:03:55.894Z,26.50
2018-11-22T01:06:23.800Z,25.82
2018-11-22T01:08:51.403Z,26.85
2018-11-22T01:11:19.012Z,25.27
2018-11-22T01:13:46.551Z,25.20
2018-11-22T01:16:14.438Z,25.50
2018-11-22T01:18:46.294Z,25.85
2018-11-22T01:21:14.334Z,25.90
2018-11-22T01:23:41.894Z,26.57
2018-11-22T01:26:09.525Z,26.02
2018-11-22T01:28:37.418Z,24.27
2018-11-22T01:31:06.222Z,26.15
2018-11-22T01:33:33.829Z,25.65
2018-11-22T01:36:03.064Z,25.40
2018-11-22T01:38:31.453Z,24.27
2018-11-22T01:40:59.076Z,25.92
2018-11-22T01:43:26.678Z,26.17
2018-11-22T01:45:55.079Z,24.87
2018-11-22T01:48:22.754Z,23.70
2018-11-22T01:50:50.358Z,23.47
2018-11-22T01:53:17.968Z,24.67
2018-11-22T01:55:45.582Z,25.80
2018-11-22T01:58:13.141Z,24.85
2018-11-22T02:00:40.784Z,25.10
2018-11-22T02:03:08.374Z,24.05
2018-11-22T02:05:35.952Z,25.02
2018-11-22T02:08:03.607Z,25.23
2018-11-22T02:10:31.156Z,24.40
2018-11-22T02:12:59.209Z,24.77
2018-11-22T02:15:27.993Z,26.52
2018-11-22T02:17:55.625Z,25.23
2018-11-22T02:20:24.129Z,24.43
2018-11-22T02:22:52.835Z,25.43
2018-11-22T02:25:22.474Z,24.72
2018-11-22T02:27:50.119Z,24.90
2018-11-22T02:30:19.785Z,24.10
2018-11-22T02:32:48.767Z,23.45
2018-11-22T02:35:17.058Z,25.97
2018-11-22T02:37:44.712Z,27.42
2018-11-22T02:40:13.788Z,25.95
2018-11-22T02:42:42.530Z,25.68
2018-11-22T02:45:11.932Z,26.37
2018-11-22T02:47:39.925Z,26.65
2018-11-22T02:50:10.250Z,28.05
2018-11-22T02:52:38.088Z,24.92
2018-11-22T02:55:06.060Z,24.82
2018-11-22T02:57:33.631Z,26.25
2018-11-22T03:00:01.180Z,26.55
2018-11-22T03:02:28.854Z,26.00
2018-11-22T03:04:56.436Z,24.27
2018-11-22T03:07:24.030Z,26.68
2018-11-22T03:09:51.635Z,26.30
2018-11-22T03:12:19.236Z,26.90
2018-11-22T03:14:46.840Z,25.57
2018-11-22T03:17:14.405Z,26.55
2018-11-22T03:19:41.960Z,26.65
2018-11-22T03:22:09.522Z,26.73
2018-11-22T03:24:37.116Z,25.43
2018-11-22T03:27:04.813Z,27.15
2018-11-22T03:29:32.360Z,25.52
2018-11-22T03:31:59.987Z,29.52
2018-11-22T03:34:27.598Z,26.75
2018-11-22T03:36:55.554Z,27.30
2018-11-22T03:39:23.230Z,27.48
2018-11-22T03:41:50.806Z,27.20
2018-11-22T03:44:18.351Z,26.93
2018-11-22T03:46:45.968Z,24.92
2018-11-22T03:49:13.479Z,26.55
2018-11-22T03:51:41.057Z,26.87
2018-11-22T03:54:08.649Z,26.25
2018-11-22T03:56:36.223Z,24.00
2018-11-22T03:59:03.839Z,26.70
2018-11-22T04:01:31.417Z,24.90
2018-11-22T04:03:58.987Z,24.43
2018-11-22T04:06:26.570Z,25.30
2018-11-22T04:08:54.180Z,24.98
2018-11-22T04:11:21.804Z,25.25
2018-11-22T04:13:49.348Z,27.98
2018-11-22T04:16:16.933Z,27.00
2018-11-22T04:18:44.555Z,25.90
2018-11-22T04:21:12.125Z,25.95
2018-11-22T04:23:39.725Z,26.10
2018-11-22T04:26:07.308Z,25.90
2018-11-22T04:28:34.943Z,25.65
2018-11-22T04:31:02.563Z,26.40
2018-11-22T04:33:30.239Z,24.65
2018-11-22T04:35:57.846Z,25.70
2018-11-22T04:38:25.462Z,27.00
2018-11-22T04:40:53.090Z,25.32
2018-11-22T04:43:20.761Z,27.65
2018-11-22T04:45:48.268Z,26.23
2018-11-22T04:48:15.850Z,28.40
2018-11-22T04:50:43.421Z,28.07
2018-11-22T04:53:11.013Z,29.27
2018-11-22T04:55:38.625Z,28.05
2018-11-22T04:58:06.232Z,29.65
2018-11-22T05:00:33.809Z,27.85
2018-11-22T05:03:01.450Z,28.17
2018-11-22T05:05:28.967Z,25.08
2018-11-22T05:07:56.617Z,28.52
2018-11-22T05:10:25.660Z,29.23
2018-11-22T05:12:53.860Z,27.25
2018-11-22T05:15:23.055Z,28.55
2018-11-22T05:17:50.646Z,27.20
2018-11-22T05:20:19.387Z,27.98
2018-11-22T05:22:47.513Z,29.42
2018-11-22T05:25:15.255Z,27.95
2018-11-22T05:27:42.881Z,27.17
2018-11-22T05:30:15.236Z,28.87
2018-11-22T05:32:42.833Z,28.12
2018-11-22T05:35:11.420Z,27.30
2018-11-22T05:37:39.008Z,26.55
2018-11-22T05:40:22.836Z,27.77
2018-11-22T05:42:50.395Z,27.75
2018-11-22T05:45:22.216Z,28.27
2018-11-22T05:47:49.849Z,27.22
2018-11-22T05:50:19.268Z,26.87
2018-11-22T05:52:47.278Z,26.40
2018-11-22T05:55:15.198Z,26.73
2018-11-22T05:57:42.856Z,26.93
2018-11-22T06:00:13.450Z,28.07
2018-11-22T06:02:41.108Z,26.75
2018-11-22T06:05:09.507Z,27.58
2018-11-22T06:07:37.102Z,25.30
2018-11-22T06:10:08.528Z,28.87
2018-11-22T06:12:36.148Z,27.37
2018-11-22T06:15:04.360Z,25.50
2018-11-22T06:17:32.004Z,27.70
2018-11-22T06:19:59.662Z,25.90
2018-11-22T06:22:27.663Z,27.20
2018-11-22T06:24:55.555Z,27.30
2018-11-22T06:27:23.216Z,26.10
2018-11-22T06:29:50.853Z,27.85
2018-11-22T06:32:18.564Z,28.52
2018-11-22T06:34:46.160Z,28.12
2018-11-22T06:37:13.774Z,29.45
2018-11-22T06:39:41.392Z,29.72
2018-11-22T06:42:08.998Z,31.30
2018-11-22T06:44:36.834Z,31.52
2018-11-22T06:47:04.601Z,26.35
2018-11-22T06:49:32.274Z,29.27
2018-11-22T06:51:59.926Z,30.60
2018-11-22T06:54:27.709Z,29.12
2018-11-22T06:56:55.353Z,30.20
2018-11-22T06:59:23.118Z,29.23
2018-11-22T07:01:50.802Z,28.47
2018-11-22T07:04:18.474Z,29.67
2018-11-22T07:06:46.094Z,31.57
2018-11-22T07:09:13.853Z,28.30
2018-11-22T07:11:41.864Z,28.38
2018-11-22T07:14:09.131Z,30.08
2018-11-22T07:16:36.753Z,27.70
2018-11-22T07:19:05.075Z,27.65
2018-11-22T07:21:32.724Z,27.45
2018-11-22T07:24:00.384Z,27.52
2018-11-22T07:26:28.236Z,27.65
2018-11-22T07:28:55.850Z,26.48
2018-11-22T07:31:23.474Z,27.42
2018-11-22T07:33:51.106Z,28.10
2018-11-22T07:36:18.810Z,28.25
2018-11-22T07:38:46.412Z,26.45
2018-11-22T07:41:13.973Z,25.95
2018-11-22T07:43:41.584Z,26.55
2018-11-22T07:46:09.165Z,25.35
2018-11-22T07:48:36.832Z,26.35
2018-11-22T07:51:04.823Z,22.75
2018-11-22T07:53:32.509Z,21.97
2018-11-22T07:56:00.287Z,21.90
2018-11-22T07:58:27.935Z,21.50
2018-11-22T08:00:55.577Z,20.50
2018-11-22T08:03:23.171Z,20.35
2018-11-22T08:05:50.977Z,21.30
2018-11-22T08:08:18.799Z,22.20
2018-11-22T08:10:46.494Z,20.95
2018-11-22T08:13:14.241Z,20.32
2018-11-22T08:15:41.923Z,20.55
2018-11-22T08:18:09.576Z,21.33
2018-11-22T08:20:37.301Z,21.45
2018-11-22T08:23:05.869Z,20.65
2018-11-22T08:25:33.951Z,20.95
2018-11-22T08:28:01.777Z,20.45
2018-11-22T08:30:29.654Z,20.32
2018-11-22T08:32:57.295Z,20.82
2018-11-22T08:35:24.907Z,19.25
2018-11-22T08:37:52.482Z,18.77
2018-11-22T08:40:21.515Z,19.73
2018-11-22T08:42:55.149Z,20.77
2018-11-22T08:45:18.986Z,20.45
2018-11-22T08:47:46.870Z,19.27
2018-11-22T08:50:16.396Z,17.52
2018-11-22T08:52:45.343Z,18.00
2018-11-22T12:16:23.445Z,11.60
2018-11-22T12:18:51.674Z,12.20
2018-11-22T12:21:19.823Z,12.23
2018-11-22T12:23:48.525Z,12.15
2018-11-22T12:26:16.245Z,11.50
2018-11-22T12:28:44.391Z,11.78
2018-11-22T12:31:12.648Z,11.48
2018-11-22T12:33:40.881Z,11.65
2018-11-22T12:36:14.697Z,12.05
2018-11-22T12:38:43.491Z,11.45
2018-11-22T12:41:11.740Z,11.57
2018-11-22T12:43:39.955Z,13.10
2018-11-22T12:46:08.201Z,11.90
2018-11-22T12:48:36.299Z,11.78
2018-11-22T12:51:04.553Z,10.50
2018-11-22T12:53:32.834Z,11.33
2018-11-22T12:56:01.071Z,9.93
2018-11-22T12:58:29.273Z,10.53
2018-11-22T13:00:58.446Z,10.60
2018-11-22T13:03:26.745Z,11.22
2018-11-22T13:05:55.208Z,10.82
2018-11-22T13:08:23.505Z,10.18
2018-11-22T13:10:51.647Z,9.43
2018-11-22T13:13:19.905Z,10.63
2018-11-22T13:15:48.007Z,11.03
2018-11-22T13:18:16.225Z,10.58
2018-11-22T13:20:44.334Z,10.50
2018-11-22T13:23:12.585Z,10.90
2018-11-22T13:25:40.804Z,13.50
2018-11-22T13:28:09.012Z,11.20
2018-11-22T13:30:37.169Z,11.05
2018-11-22T13:33:05.554Z,10.82
2018-11-22T13:35:33.800Z,10.45
2018-11-22T13:38:01.969Z,10.18
2018-11-22T13:40:30.144Z,10.55
2018-11-22T13:42:58.298Z,10.85
2018-11-22T13:45:27.682Z,11.05
2018-11-22T13:47:56.353Z,10.35
2018-11-22T13:50:30.572Z,12.25
2018-11-22T13:53:00.336Z,11.75
2018-11-22T13:55:28.674Z,9.90
2018-11-22T13:57:56.990Z,10.63
2018-11-22T14:00:26.642Z,10.30
2018-11-22T14:02:56.529Z,11.28
2018-11-22T14:05:24.737Z,10.28
2018-11-22T14:07:52.942Z,10.85
2018-11-22T14:10:21.483Z,11.10
2018-11-22T14:12:49.922Z,10.25
2018-11-22T14:15:19.391Z,12.53
2018-11-22T14:17:48.610Z,14.87
2018-11-22T14:20:20.949Z,17.23
2018-11-22T14:22:49.875Z,16.65
2018-11-22T14:25:18.096Z,16.73
2018-11-22T14:27:47.598Z,19.12
2018-11-22T14:30:16.987Z,17.17
2018-11-22T14:32:45.735Z,17.90
2018-11-22T14:35:15.269Z,16.50
2018-11-22T14:37:44.082Z,17.15
2018-11-22T14:40:29.349Z,17.32
2018-11-22T14:42:57.780Z,16.93
2018-11-22T14:45:26.606Z,18.23
2018-11-22T14:47:56.036Z,17.62
2018-11-22T14:50:30.674Z,17.10
2018-11-22T14:53:30.463Z,16.85
2018-11-22T14:55:59.322Z,16.93
2018-11-22T14:58:27.522Z,18.42
2018-11-22T15:00:55.823Z,17.25
2018-11-22T15:03:24.075Z,17.50
2018-11-22T15:05:52.309Z,17.42
2018-11-22T15:08:20.516Z,17.42
2018-11-22T15:10:48.689Z,16.20
2018-11-22T15:13:16.889Z,16.57
2018-11-22T15:15:45.086Z,17.48
2018-11-22T15:18:13.266Z,17.52
2018-11-22T15:20:41.746Z,17.25
2018-11-22T15:23:09.878Z,16.65
2018-11-22T15:25:38.031Z,16.20
2018-11-22T15:28:06.229Z,17.45
2018-11-22T15:30:34.887Z,17.60
2018-11-22T15:33:03.138Z,17.30
2018-11-22T15:35:31.468Z,16.93
2018-11-22T15:37:59.800Z,16.97
2018-11-22T15:40:28.218Z,15.68
2018-11-22T15:42:58.503Z,14.93
2018-11-22T15:45:34.751Z,16.20
2018-11-22T15:47:56.291Z,15.88
2018-11-22T15:50:26.083Z,16.93
2018-11-22T15:52:54.503Z,16.12
2018-11-22T15:55:23.927Z,16.48
2018-11-22T15:57:54.678Z,16.97
2018-11-22T16:00:24.479Z,16.00
2018-11-22T16:02:53.475Z,16.42
2018-11-22T16:05:22.988Z,16.40
2018-11-22T16:07:51.171Z,16.32
2018-11-22T16:10:26.300Z,14.93
2018-11-22T16:12:52.757Z,17.67
2018-11-22T16:15:33.390Z,18.27
2018-11-22T16:18:01.764Z,18.23
2018-11-22T16:20:29.934Z,18.42
2018-11-22T16:22:58.155Z,17.17
2018-11-22T16:25:26.323Z,18.07
2018-11-22T16:27:54.552Z,17.75
2018-11-22T16:30:24.129Z,16.62
2018-11-22T16:32:52.588Z,16.10
2018-11-22T16:35:21.519Z,16.75
2018-11-22T16:37:49.885Z,23.57
2018-11-22T16:40:21.089Z,18.55
2018-11-22T16:42:51.207Z,19.77
2018-11-22T16:45:25.815Z,18.32
2018-11-22T16:47:55.471Z,21.20
2018-11-22T16:50:25.680Z,19.77
2018-11-22T16:52:54.136Z,20.45
2018-11-22T16:55:22.889Z,20.25
2018-11-22T16:57:52.202Z,19.60
2018-11-22T17:00:28.424Z,19.30
2018-11-22T17:02:58.278Z,18.12
2018-11-22T17:05:26.961Z,17.50
2018-11-22T17:07:55.408Z,20.10
2018-11-22T17:10:24.911Z,18.12
2018-11-22T17:12:54.433Z,15.23
2018-11-22T17:15:24.767Z,16.67
2018-11-22T17:17:53.357Z,17.95
2018-11-22T17:20:22.458Z,18.12
2018-11-22T17:22:51.342Z,18.17
2018-11-22T17:25:22.797Z,17.92
2018-11-22T17:27:52.637Z,17.32
2018-11-22T17:30:22.515Z,17.67
2018-11-22T17:32:50.923Z,17.37
2018-11-22T17:35:21.805Z,17.25
2018-11-22T17:37:50.595Z,17.92
2018-11-22T17:40:21.082Z,18.57
2018-11-22T17:42:49.424Z,18.75
2018-11-22T17:45:22.970Z,17.50
2018-11-22T17:47:51.491Z,17.92
2018-11-22T17:50:20.981Z,17.62
2018-11-22T17:52:49.426Z,16.77
2018-11-22T17:55:19.268Z,17.90
2018-11-22T17:57:48.131Z,16.10
2018-11-22T18:00:25.801Z,16.20
2018-11-22T18:02:55.278Z,17.20
2018-11-22T18:05:27.131Z,17.15
2018-11-22T18:07:51.938Z,18.62
2018-11-22T18:10:21.803Z,18.37
2018-11-22T18:12:50.774Z,18.27
2018-11-22T18:15:20.077Z,19.73
2018-11-22T18:17:48.682Z,17.87
2018-11-22T18:20:22.149Z,16.82
2018-11-22T18:22:51.374Z,19.07
2018-11-22T18:25:20.971Z,21.05
2018-11-22T18:27:49.395Z,20.52
2018-11-22T18:30:27.869Z,22.02
2018-11-22T18:32:57.814Z,21.82
2018-11-22T18:35:26.299Z,20.05
2018-11-22T18:37:54.536Z,25.20
2018-11-22T18:40:25.390Z,23.20
2018-11-22T18:42:55.389Z,23.10
2018-11-22T18:45:29.657Z,24.87
2018-11-22T18:47:58.376Z,26.00
2018-11-22T18:50:27.867Z,24.10
2018-11-22T18:52:56.299Z,22.70
2018-11-22T18:55:24.747Z,20.48
2018-11-22T18:57:53.112Z,22.87
2018-11-22T19:00:31.493Z,21.93
2018-11-22T19:03:06.793Z,19.65
2018-11-22T19:05:35.125Z,20.30
2018-11-22T19:08:03.738Z,19.07
2018-11-22T19:10:34.672Z,21.07
2018-11-22T19:13:04.735Z,20.05
2018-11-22T19:15:34.534Z,18.70
2018-11-22T19:18:03.222Z,18.60
2018-11-22T19:20:34.284Z,17.65
2018-11-22T19:23:03.718Z,15.63
2018-11-22T19:25:32.083Z,17.75
2018-11-22T19:28:01.129Z,16.00
2018-11-22T19:30:37.025Z,18.65
2018-11-22T19:33:01.061Z,18.75
2018-11-22T19:35:38.254Z,19.48
2018-11-22T19:38:06.977Z,17.10
2018-11-22T19:40:36.674Z,18.20
2018-11-22T19:43:06.761Z,17.17
2018-11-22T19:45:36.692Z,17.65
2018-11-22T19:48:05.702Z,19.20
2018-11-22T19:50:34.149Z,16.40
2018-11-22T19:53:03.675Z,18.45
2018-11-22T19:55:33.065Z,18.15
2018-11-22T19:58:03.752Z,18.20
2018-11-22T20:00:32.401Z,18.25
2018-11-22T20:03:02.100Z,17.95
2018-11-22T20:05:31.772Z,18.12
2018-11-22T20:08:03.022Z,20.12
2018-11-22T20:10:32.789Z,18.48
2018-11-22T20:13:01.253Z,21.20
2018-11-22T20:15:30.171Z,17.75
2018-11-22T20:17:59.371Z,18.62
2018-11-22T20:20:27.861Z,20.17
2018-11-22T20:22:56.895Z,19.87
2018-11-22T20:25:25.573Z,17.75
2018-11-22T20:27:55.195Z,17.77
2018-11-22T20:30:25.250Z,20.52
2018-11-22T20:32:53.761Z,17.87
2018-11-22T20:35:23.009Z,18.12
2018-11-22T20:37:51.920Z,19.45
2018-11-22T20:40:21.572Z,18.45
2018-11-22T20:42:50.061Z,19.65
2018-11-22T20:45:19.576Z,19.45
2018-11-22T20:47:49.500Z,18.05
2018-11-22T20:50:19.171Z,18.45
2018-11-22T20:52:47.438Z,16.62
2018-11-22T20:55:19.024Z,19.70
2018-11-22T20:57:48.442Z,19.62
2018-11-22T21:00:18.345Z,18.85
2018-11-22T21:02:46.876Z,18.48
2018-11-22T21:05:15.972Z,17.32
2018-11-22T21:07:44.608Z,17.75
2018-11-22T21:10:14.326Z,18.70
2018-11-22T21:12:42.700Z,19.90
2018-11-22T21:15:15.397Z,18.30
2018-11-22T21:17:44.482Z,21.68
2018-11-22T21:20:14.359Z,18.45
2018-11-22T21:22:42.762Z,18.62
2018-11-22T21:25:12.941Z,19.00
2018-11-22T21:27:41.267Z,19.65
2018-11-22T21:30:22.031Z,21.20
2018-11-22T21:32:51.188Z,17.65
2018-11-22T21:35:19.857Z,17.75
2018-11-22T21:37:48.872Z,19.12
2018-11-22T21:40:17.880Z,17.73
2018-11-22T21:42:46.237Z,19.45
2018-11-22T21:45:16.324Z,18.05
2018-11-22T21:47:44.771Z,19.02
2018-11-22T21:50:14.503Z,17.50
2018-11-22T21:52:42.994Z,18.40
2018-11-22T21:55:16.165Z,19.55
2018-11-22T21:57:45.175Z,19.15
2018-11-22T22:00:17.710Z,19.80
2018-11-22T22:02:52.412Z,18.60
2018-11-22T22:05:16.647Z,16.75
2018-11-22T22:07:44.939Z,18.42
2018-11-22T22:10:13.657Z,17.55
2018-11-22T22:12:42.317Z,18.32
2018-11-22T22:15:14.359Z,18.80
2018-11-22T22:17:43.586Z,17.70
2018-11-22T22:20:14.205Z,18.52
2018-11-22T22:22:42.479Z,16.77
2018-11-22T22:25:13.280Z,18.27
2018-11-22T22:27:41.769Z,19.65
2018-11-22T22:30:13.435Z,16.95
2018-11-22T22:32:42.331Z,18.65
2018-11-22T22:35:10.538Z,20.00
2018-11-22T22:37:39.208Z,20.00
2018-11-22T22:40:13.345Z,19.73
2018-11-22T22:42:42.777Z,18.95
2018-11-22T22:45:12.180Z,17.40
2018-11-22T22:47:40.811Z,19.00
2018-11-22T22:50:16.091Z,19.48
2018-11-22T22:52:45.357Z,19.65
2018-11-22T22:55:13.623Z,19.32
2018-11-22T22:57:42.338Z,19.62
2018-11-22T23:00:22.435Z,18.85
2018-11-22T23:02:51.860Z,18.73
2018-11-22T23:05:20.606Z,18.90
2018-11-22T23:07:48.836Z,21.70
2018-11-22T23:10:18.283Z,20.50
2018-11-22T23:12:46.517Z,16.67
2018-11-22T23:15:15.876Z,18.82
2018-11-22T23:17:44.222Z,18.00
2018-11-22T23:20:16.228Z,18.65
2018-11-22T23:22:45.625Z,18.90
2018-11-22T23:25:16.081Z,16.82
2018-11-22T23:27:44.245Z,16.90
2018-11-22T23:30:20.180Z,18.55
2018-11-22T23:32:50.508Z,19.12
2018-11-22T23:35:18.887Z,19.37
2018-11-22T23:37:47.376Z,18.85
2018-11-22T23:40:16.810Z,19.57
2018-11-22T23:42:45.059Z,19.12
2018-11-22T23:45:14.870Z,19.30
2018-11-22T23:47:43.449Z,18.27
2018-11-22T23:50:14.865Z,19.35
2018-11-22T23:52:44.268Z,20.15
2018-11-22T23:55:12.476Z,17.57
2018-11-22T23:57:40.754Z,17.75
